Time;durP1;ratioP1;P1;durP2;ratioP2;P2;SDS_P1;SDS_P2;PMS_P1;PMS_P2;Temp;Humidity;BMP_temperature;BMP_pressure;BME280_temperature;BME280_humidity;BME280_pressure;Samples;Min_cycle;Max_cycle;Signal;HPM_P1;HPM_P2
2021/01/14 00:00:29;;;;;;;5.20;2.00;;;;;;;0.65;79.31;100366.78;5046304;28;20202;-62
2021/01/14 00:02:55;;;;;;;3.87;1.87;;;;;;;0.66;79.13;100370.25;5042661;28;20552;-62
2021/01/14 00:05:21;;;;;;;3.70;1.93;;;;;;;0.65;79.65;100365.91;5047303;28;20237;-61
2021/01/14 00:07:49;;;;;;;3.17;1.73;;;;;;;0.64;79.64;100367.69;5052210;28;20228;-62
2021/01/14 00:10:17;;;;;;;3.43;2.03;;;;;;;0.64;79.56;100369.44;5048518;28;20966;-61
2021/01/14 00:12:44;;;;;;;5.03;1.97;;;;;;;0.62;79.57;100382.59;5050196;28;20275;-61
2021/01/14 00:15:12;;;;;;;1.43;1.33;;;;;;;0.60;79.46;100389.63;5052436;28;20308;-62
2021/01/14 00:17:38;;;;;;;4.13;1.30;;;;;;;0.57;79.49;100387.09;5044267;28;20237;-62
2021/01/14 00:20:06;;;;;;;8.03;1.77;;;;;;;0.53;79.25;100392.47;5048455;28;20206;-61
2021/01/14 00:22:32;;;;;;;4.03;1.60;;;;;;;0.50;79.27;100390.78;5051401;28;20247;-62
2021/01/14 00:24:58;;;;;;;2.03;1.20;;;;;;;0.47;79.04;100396.09;5048928;28;20666;-62
2021/01/14 00:27:25;;;;;;;4.97;1.13;;;;;;;0.45;79.07;100395.28;5047674;28;20277;-62
2021/01/14 00:29:51;;;;;;;2.80;1.20;;;;;;;0.42;78.84;100399.72;5032981;28;20206;-62
2021/01/14 00:32:17;;;;;;;4.33;1.67;;;;;;;0.39;78.86;100395.41;5035017;28;20237;-60
2021/01/14 00:34:43;;;;;;;4.70;1.30;;;;;;;0.38;78.77;100413.78;5048652;28;20230;-62
2021/01/14 00:39:53;;;;;;;3.30;0.90;;;;;;;0.34;78.52;100420.91;5052988;28;20323;-62
2021/01/14 00:42:19;;;;;;;7.97;1.70;;;;;;;0.34;78.43;100413.91;5045704;28;20198;-62
2021/01/14 00:44:46;;;;;;;2.37;1.17;;;;;;;0.34;78.41;100423.50;5051827;28;20244;-62
2021/01/14 00:47:12;;;;;;;3.10;1.30;;;;;;;0.34;78.08;100427.00;5045299;28;20221;-62
2021/01/14 00:49:38;;;;;;;3.03;1.63;;;;;;;0.34;77.65;100440.09;5042331;28;20213;-62
2021/01/14 00:52:04;;;;;;;4.57;1.53;;;;;;;0.34;77.83;100439.25;5040505;28;20237;-62
2021/01/14 00:54:30;;;;;;;3.13;1.50;;;;;;;0.35;77.73;100440.97;5051916;28;20610;-62
2021/01/14 00:56:56;;;;;;;2.23;1.20;;;;;;;0.33;77.73;100422.66;5038751;28;20262;-62
2021/01/14 00:59:22;;;;;;;3.40;1.37;;;;;;;0.34;77.49;100441.84;5040077;28;20297;-62
2021/01/14 01:01:49;;;;;;;3.40;1.53;;;;;;;0.34;77.38;100444.47;5040906;28;20208;-63
2021/01/14 01:04:15;;;;;;;3.47;1.80;;;;;;;0.33;77.16;100443.63;5051505;28;20347;-63
2021/01/14 01:06:42;;;;;;;1.67;1.17;;;;;;;0.33;77.14;100448.84;5052250;28;20284;-63
2021/01/14 01:09:11;;;;;;;6.37;2.20;;;;;;;0.34;77.01;100454.94;5046625;28;20685;-63
2021/01/14 01:11:38;;;;;;;2.87;1.17;;;;;;;0.36;77.07;100462.78;5035177;28;20202;-62
2021/01/14 01:14:05;;;;;;;3.87;1.60;;;;;;;0.36;76.86;100471.47;5037637;28;20241;-62
2021/01/14 01:16:31;;;;;;;11.10;1.40;;;;;;;0.35;76.47;100461.91;5046708;28;20275;-62
2021/01/14 01:18:58;;;;;;;2.73;1.50;;;;;;;0.37;76.95;100473.19;5034707;28;20214;-59
2021/01/14 01:21:24;;;;;;;2.93;1.20;;;;;;;0.37;76.63;100467.94;5039649;28;20270;-59
2021/01/14 01:23:50;;;;;;;3.80;1.47;;;;;;;0.38;76.46;100466.19;5048549;28;20349;-60
2021/01/14 01:26:18;;;;;;;2.23;1.07;;;;;;;0.38;76.03;100463.56;5038015;28;20296;-61
2021/01/14 01:28:44;;;;;;;1.97;1.10;;;;;;;0.38;76.00;100477.53;5034724;28;20685;-61
2021/01/14 01:31:11;;;;;;;1.33;0.90;;;;;;;0.33;75.76;100482.91;5042774;28;20197;-61
2021/01/14 01:33:38;;;;;;;5.63;1.53;;;;;;;0.32;75.82;100485.56;5038029;28;20207;-60
2021/01/14 01:36:06;;;;;;;2.03;1.23;;;;;;;0.30;75.64;100485.59;5037279;28;20206;-58
2021/01/14 01:38:32;;;;;;;2.77;1.20;;;;;;;0.28;75.74;100486.53;5046055;28;20206;-61
2021/01/14 01:41:00;;;;;;;2.07;1.10;;;;;;;0.27;75.52;100495.28;5045671;28;20674;-60
2021/01/14 01:43:27;;;;;;;3.43;1.83;;;;;;;0.26;75.77;100501.41;5042030;28;20207;-61
2021/01/14 01:45:53;;;;;;;3.07;1.07;;;;;;;0.24;75.31;100500.59;5040266;28;20225;-61
2021/01/14 01:48:20;;;;;;;2.30;1.20;;;;;;;0.23;75.54;100498.84;5031767;28;20198;-62
2021/01/14 01:50:49;;;;;;;2.30;1.20;;;;;;;0.20;75.51;100510.25;5033210;28;20575;-61
2021/01/14 01:53:16;;;;;;;3.87;1.37;;;;;;;0.18;75.61;100522.53;5036039;28;20209;-60
2021/01/14 01:55:43;;;;;;;3.97;1.10;;;;;;;0.19;75.45;100523.38;5043913;28;20713;-61
2021/01/14 01:58:11;;;;;;;3.70;1.30;;;;;;;0.19;75.54;100539.09;5038161;28;20288;-60
2021/01/14 02:00:37;;;;;;;3.50;1.20;;;;;;;0.18;75.53;100534.78;5033420;28;20213;-61
2021/01/14 02:03:03;;;;;;;2.70;1.40;;;;;;;0.18;75.51;100527.75;5044310;28;20209;-61
2021/01/14 02:05:29;;;;;;;2.27;1.27;;;;;;;0.19;75.43;100531.25;5047912;28;20222;-59
2021/01/14 02:08:06;;;;;;;3.17;1.20;;;;;;;0.20;75.47;100548.69;5049798;28;20724;-60
2021/01/14 02:10:35;;;;;;;4.47;1.20;;;;;;;0.19;75.15;100541.72;5044856;28;20210;-61
2021/01/14 02:13:10;;;;;;;6.93;1.83;;;;;;;0.20;75.43;100554.78;5038097;28;20213;-61
2021/01/14 02:15:37;;;;;;;3.47;1.10;;;;;;;0.21;75.25;100548.66;5051924;28;20605;-61
2021/01/14 02:18:03;;;;;;;2.93;1.50;;;;;;;0.21;75.36;100569.59;5043750;28;20711;-60
2021/01/14 02:20:31;;;;;;;2.87;0.90;;;;;;;0.22;75.44;100565.22;5032875;28;20210;-61
2021/01/14 02:23:04;;;;;;;2.13;1.20;;;;;;;0.23;75.52;100566.94;5045177;28;20202;-60
2021/01/14 02:25:35;;;;;;;5.30;1.60;;;;;;;0.24;75.44;100560.81;5043790;28;20590;-60
2021/01/14 02:28:04;;;;;;;4.37;1.13;;;;;;;0.26;75.40;100556.41;5045004;28;20645;-61
2021/01/14 02:30:30;;;;;;;2.30;1.03;;;;;;;0.26;75.49;100572.13;5044695;28;20236;-61
2021/01/14 02:32:56;;;;;;;3.93;1.50;;;;;;;0.27;75.42;100568.63;5031685;28;20213;-62
2021/01/14 02:35:22;;;;;;;5.67;1.90;;;;;;;0.27;75.79;100563.38;5037959;28;20245;-62
2021/01/14 02:37:48;;;;;;;3.13;1.20;;;;;;;0.28;75.36;100573.81;5045993;28;20244;-61
2021/01/14 02:40:14;;;;;;;5.33;1.00;;;;;;;0.29;75.50;100578.16;5040637;28;20241;-62
2021/01/14 02:42:40;;;;;;;4.50;1.13;;;;;;;0.32;75.54;100578.09;5042458;28;20658;-59
2021/01/14 02:45:09;;;;;;;2.73;1.20;;;;;;;0.33;75.45;100577.22;5045284;28;20314;-61
2021/01/14 02:47:37;;;;;;;2.63;1.17;;;;;;;0.34;75.32;100583.31;5036499;28;20236;-61
2021/01/14 02:50:05;;;;;;;2.03;0.90;;;;;;;0.35;75.65;100587.66;5043513;28;20197;-61
2021/01/14 02:52:33;;;;;;;4.43;1.50;;;;;;;0.37;75.66;100583.22;5031751;28;20198;-61
2021/01/14 02:55:01;;;;;;;3.70;1.13;;;;;;;0.37;75.57;100598.94;5030252;28;20229;-60
2021/01/14 02:57:27;;;;;;;3.00;1.03;;;;;;;0.39;75.72;100597.13;5036688;28;20735;-59
2021/01/14 02:59:54;;;;;;;3.53;1.50;;;;;;;0.39;75.53;100607.63;5033495;28;20202;-60
2021/01/14 03:02:21;;;;;;;3.23;1.20;;;;;;;0.39;75.64;100597.13;5038749;28;20647;-61
2021/01/14 03:04:47;;;;;;;2.47;1.40;;;;;;;0.41;75.57;100597.09;5063662;22;20222;-61
2021/01/14 03:07:14;;;;;;;2.40;1.30;;;;;;;0.41;75.55;100600.59;5026159;28;20205;-62
2021/01/14 03:09:40;;;;;;;4.07;1.73;;;;;;;0.42;75.73;100620.66;5025898;28;20207;-62
2021/01/14 03:12:06;;;;;;;3.13;1.70;;;;;;;0.43;75.71;100618.91;5027879;28;20260;-62
2021/01/14 03:14:32;;;;;;;3.83;1.37;;;;;;;0.44;75.65;100613.63;5030942;28;20237;-61
2021/01/14 03:16:58;;;;;;;3.53;1.37;;;;;;;0.44;75.63;100607.53;5029366;28;20236;-63
2021/01/14 03:19:24;;;;;;;2.90;1.20;;;;;;;0.46;75.57;100632.78;5028787;28;20289;-62
2021/01/14 03:21:50;;;;;;;2.40;1.00;;;;;;;0.46;75.58;100632.78;5029676;28;20230;-62
2021/01/14 03:24:16;;;;;;;2.20;1.17;;;;;;;0.46;75.76;100631.94;5030304;28;20206;-63
2021/01/14 03:26:42;;;;;;;2.17;1.27;;;;;;;0.46;75.56;100638.03;5019187;28;20690;-60
2021/01/14 03:29:08;;;;;;;3.73;1.40;;;;;;;0.46;75.75;100640.66;5026678;28;20245;-62
2021/01/14 03:31:34;;;;;;;5.00;1.40;;;;;;;0.47;75.55;100645.00;5029627;28;20438;-62
2021/01/14 03:34:00;;;;;;;4.17;1.50;;;;;;;0.46;75.92;100651.13;5028702;28;20741;-60
2021/01/14 03:36:32;;;;;;;2.60;1.40;;;;;;;0.47;75.89;100645.00;5030420;28;20659;-62
2021/01/14 03:38:59;;;;;;;5.50;1.70;;;;;;;0.47;75.79;100660.72;5026039;28;20213;-62
2021/01/14 03:41:25;;;;;;;2.90;1.33;;;;;;;0.46;75.98;100664.25;5018677;28;20725;-61
2021/01/14 03:43:51;;;;;;;3.00;1.40;;;;;;;0.47;76.20;100665.97;5029795;28;20214;-61
2021/01/14 03:46:20;;;;;;;4.73;1.60;;;;;;;0.47;76.11;100676.44;5028284;28;20223;-62
2021/01/14 03:48:47;;;;;;;3.20;1.47;;;;;;;0.48;76.20;100678.16;5029658;28;20206;-62
2021/01/14 03:51:15;;;;;;;2.40;1.57;;;;;;;0.47;76.46;100680.81;5027960;28;20209;-62
2021/01/14 03:53:42;;;;;;;4.53;1.40;;;;;;;0.48;76.35;100690.41;5029372;28;20202;-62
2021/01/14 03:56:08;;;;;;;3.40;1.50;;;;;;;0.48;76.25;100688.66;5028338;28;20230;-60
2021/01/14 03:58:34;;;;;;;3.43;1.80;;;;;;;0.48;76.40;100693.03;5029774;28;20237;-63
2021/01/14 04:01:01;;;;;;;3.00;1.60;;;;;;;0.48;76.48;100704.38;5029772;28;20203;-62
2021/01/14 04:03:27;;;;;;;2.97;1.53;;;;;;;0.48;76.57;100714.00;5027441;28;20202;-61
2021/01/14 04:05:53;;;;;;;3.40;1.60;;;;;;;0.48;76.71;100717.47;5029706;28;20234;-62
2021/01/14 04:08:19;;;;;;;3.07;1.77;;;;;;;0.48;76.80;100711.38;5028409;28;20511;-62
2021/01/14 04:10:45;;;;;;;2.10;1.40;;;;;;;0.50;76.77;100712.22;5029582;28;20202;-63
2021/01/14 04:13:11;;;;;;;5.03;1.70;;;;;;;0.50;76.80;100725.31;5031747;28;20694;-60
2021/01/14 04:15:37;;;;;;;5.17;1.83;;;;;;;0.50;76.58;100728.78;5031478;28;20225;-60
2021/01/14 04:18:04;;;;;;;2.20;1.80;;;;;;;0.51;76.76;100720.03;5034202;28;20266;-61
2021/01/14 04:20:30;;;;;;;3.63;1.97;;;;;;;0.52;76.88;100726.16;5031792;28;20207;-62
2021/01/14 04:22:56;;;;;;;4.03;1.80;;;;;;;0.52;76.98;100729.63;5033079;28;20629;-62
2021/01/14 04:25:30;;;;;;;6.03;2.50;;;;;;;0.53;76.89;100739.22;5031830;28;20396;-63
2021/01/14 04:27:57;;;;;;;9.13;3.57;;;;;;;0.54;76.97;100746.16;5033666;28;20328;-62
2021/01/14 04:30:24;;;;;;;3.97;1.97;;;;;;;0.54;76.86;100751.41;5030462;28;20206;-62
2021/01/14 04:32:52;;;;;;;3.17;1.43;;;;;;;0.57;76.96;100756.56;5032541;28;20261;-62
2021/01/14 04:35:24;;;;;;;1.90;1.53;;;;;;;0.56;76.93;100760.09;5030515;28;20236;-62
2021/01/14 04:37:50;;;;;;;3.37;2.20;;;;;;;0.56;77.00;100754.84;5026694;28;20288;-61
2021/01/14 04:40:16;;;;;;;3.17;2.10;;;;;;;0.58;77.13;100757.44;5032891;28;20655;-62
2021/01/14 04:42:50;;;;;;;2.47;1.87;;;;;;;0.59;77.15;100761.78;5030776;28;20206;-63
2021/01/14 04:45:21;;;;;;;5.13;2.33;;;;;;;0.59;77.04;100760.03;5031735;28;20643;-62
2021/01/14 04:47:49;;;;;;;4.17;2.27;;;;;;;0.60;76.92;100763.50;5031074;28;20206;-62
2021/01/14 04:50:17;;;;;;;2.27;1.80;;;;;;;0.60;77.36;100767.00;5031757;28;20693;-61
2021/01/14 04:52:44;;;;;;;3.90;2.03;;;;;;;0.61;77.61;100763.50;5030601;28;20572;-62
2021/01/14 04:55:14;;;;;;;6.80;1.83;;;;;;;0.62;76.96;100769.59;5032642;28;20233;-61
2021/01/14 04:57:43;;;;;;;4.67;2.40;;;;;;;0.62;77.40;100770.47;5032271;28;20232;-62
2021/01/14 05:00:11;;;;;;;4.03;2.23;;;;;;;0.63;77.44;100766.94;5030929;28;20206;-62
2021/01/14 05:02:53;;;;;;;3.93;2.20;;;;;;;0.64;77.48;100773.91;5026068;28;20297;-64
2021/01/14 05:05:22;;;;;;;4.07;1.90;;;;;;;0.64;77.30;100784.41;5032355;28;20230;-63
2021/01/14 05:08:02;;;;;;;4.50;2.03;;;;;;;0.63;77.37;100780.03;5026194;28;20628;-64
2021/01/14 05:10:31;;;;;;;3.77;2.13;;;;;;;0.64;77.12;100789.63;5026427;28;20220;-63
2021/01/14 05:12:58;;;;;;;6.03;1.97;;;;;;;0.64;77.59;100789.63;5031511;28;20202;-63
2021/01/14 05:15:26;;;;;;;2.83;2.07;;;;;;;0.65;77.59;100798.38;5018784;28;20226;-62
2021/01/14 05:17:53;;;;;;;6.00;2.97;;;;;;;0.65;77.56;100798.38;5032469;28;20733;-62
2021/01/14 05:20:19;;;;;;;4.17;2.37;;;;;;;0.64;77.48;100805.38;5030912;28;20576;-62
2021/01/14 05:22:48;;;;;;;6.70;2.67;;;;;;;0.65;77.63;100807.09;5031624;28;20264;-63
2021/01/14 05:25:14;;;;;;;4.53;2.67;;;;;;;0.65;77.61;100814.09;5030434;28;20234;-63
2021/01/14 05:27:40;;;;;;;5.13;2.30;;;;;;;0.65;77.69;100817.56;5032102;28;20194;-63
2021/01/14 05:30:08;;;;;;;4.90;2.60;;;;;;;0.64;77.54;100818.47;5032143;28;20210;-63
2021/01/14 05:32:38;;;;;;;4.53;2.77;;;;;;;0.64;77.62;100828.94;5028914;28;20206;-63
2021/01/14 05:35:07;;;;;;;4.63;2.90;;;;;;;0.64;77.76;100826.34;5031254;28;20271;-63
2021/01/14 05:37:35;;;;;;;4.70;3.23;;;;;;;0.63;77.56;100835.09;5029746;28;20230;-63
2021/01/14 05:40:03;;;;;;;4.47;2.77;;;;;;;0.63;78.14;100842.94;5031578;28;20214;-61
2021/01/14 05:42:29;;;;;;;4.70;2.83;;;;;;;0.63;78.04;100839.47;5026636;28;20698;-63
2021/01/14 05:44:55;;;;;;;6.47;2.77;;;;;;;0.62;78.01;100846.47;5031298;28;20226;-63
2021/01/14 05:47:22;;;;;;;4.17;2.97;;;;;;;0.62;78.13;100850.84;5029870;28;20198;-63
2021/01/14 05:50:00;;;;;;;4.83;2.70;;;;;;;0.62;78.26;100859.56;5031665;28;20252;-64
2021/01/14 05:52:29;;;;;;;3.63;2.70;;;;;;;0.62;78.39;100862.19;5030257;28;20228;-62
2021/01/14 05:55:16;;;;;;;3.97;2.53;;;;;;;0.62;78.30;100867.44;5031259;28;20238;-63
2021/01/14 05:58:01;;;;;;;2.87;2.23;;;;;;;0.63;78.47;100870.91;5031017;28;20234;-63
2021/01/14 06:00:34;;;;;;;4.90;2.93;;;;;;;0.63;78.52;100882.25;5015488;28;20336;-64
2021/01/14 06:03:28;;;;;;;9.43;3.10;;;;;;;0.63;78.77;100884.88;5023310;28;20202;-63
2021/01/14 06:05:55;;;;;;;4.27;2.73;;;;;;;0.62;78.75;100885.78;5030786;28;20238;-62
2021/01/14 06:08:24;;;;;;;5.27;2.87;;;;;;;0.62;78.69;100888.41;5029104;28;20217;-63
2021/01/14 06:10:50;;;;;;;5.83;3.03;;;;;;;0.62;79.25;100896.25;5028607;28;20210;-62
2021/01/14 06:13:16;;;;;;;5.50;3.03;;;;;;;0.63;78.83;100900.63;5027729;28;20218;-63
2021/01/14 06:15:42;;;;;;;4.87;3.20;;;;;;;0.63;79.28;100902.38;5028186;28;20226;-63
2021/01/14 06:18:10;;;;;;;6.10;4.00;;;;;;;0.63;79.09;100899.75;5024909;28;20233;-63
2021/01/14 06:20:51;;;;;;;4.70;3.70;;;;;;;0.62;79.52;100905.88;5029833;28;20210;-63
2021/01/14 06:23:19;;;;;;;7.10;3.70;;;;;;;0.62;79.51;100904.13;5021616;28;20534;-63
2021/01/14 06:25:49;;;;;;;5.57;3.50;;;;;;;0.61;79.66;100909.41;5024224;28;20218;-61
2021/01/14 06:28:15;;;;;;;5.83;4.17;;;;;;;0.59;79.57;100916.41;5024633;28;20206;-62
2021/01/14 06:30:57;;;;;;;6.93;4.03;;;;;;;0.59;80.00;100926.91;5020614;28;20206;-63
2021/01/14 06:33:24;;;;;;;5.27;3.63;;;;;;;0.56;79.79;100933.06;5026911;28;20241;-62
2021/01/14 06:36:02;;;;;;;7.43;4.57;;;;;;;0.55;79.69;100931.31;5028393;28;20222;-61
2021/01/14 06:38:43;;;;;;;7.97;4.73;;;;;;;0.53;80.24;100934.91;5027073;28;20228;-62
2021/01/14 06:41:18;;;;;;;6.23;3.70;;;;;;;0.52;80.16;100935.78;5022203;28;20206;-62
2021/01/14 06:43:45;;;;;;;8.17;4.33;;;;;;;0.51;80.34;100940.16;5019544;28;20281;-61
2021/01/14 06:46:16;;;;;;;6.53;4.07;;;;;;;0.50;80.33;100943.66;5020574;28;20241;-60
2021/01/14 06:48:58;;;;;;;5.90;3.83;;;;;;;0.50;80.67;100948.03;5019211;28;20195;-62
2021/01/14 06:51:31;;;;;;;9.10;4.20;;;;;;;0.47;80.58;100959.44;5022827;28;20229;-62
2021/01/14 06:54:08;;;;;;;6.30;4.30;;;;;;;0.45;80.84;100963.84;5025954;28;20206;-59
2021/01/14 06:56:46;;;;;;;5.77;3.87;;;;;;;0.45;80.72;100973.44;5019267;28;20259;-63
2021/01/14 06:59:15;;;;;;;6.73;4.63;;;;;;;0.44;81.17;100979.59;5014029;28;20209;-61
2021/01/14 07:01:45;;;;;;;7.83;5.00;;;;;;;0.41;80.84;100972.63;5026726;28;20210;-61
2021/01/14 07:04:28;;;;;;;10.90;4.67;;;;;;;0.42;81.39;100976.97;5030593;28;20237;-62
2021/01/14 07:07:08;;;;;;;5.27;4.40;;;;;;;0.42;81.32;100981.34;5027615;28;20201;-61
2021/01/14 07:09:41;;;;;;;8.47;4.83;;;;;;;0.41;81.51;100996.22;5029109;28;20213;-59
2021/01/14 07:12:14;;;;;;;8.43;4.50;;;;;;;0.40;81.53;101007.59;5019350;28;20210;-61
2021/01/14 07:14:45;;;;;;;6.30;4.60;;;;;;;0.40;81.70;101004.97;5031361;28;20252;-59
2021/01/14 07:17:18;;;;;;;6.80;4.97;;;;;;;0.41;81.80;101008.44;5029593;28;20225;-63
2021/01/14 07:19:44;;;;;;;8.63;4.97;;;;;;;0.39;81.82;101018.94;5024666;28;20264;-65
2021/01/14 07:22:13;;;;;;;8.37;5.20;;;;;;;0.40;81.93;101023.31;5026840;28;20197;-58
2021/01/14 07:24:41;;;;;;;9.03;5.63;;;;;;;0.40;82.08;101025.91;5025567;28;20226;-61
2021/01/14 07:27:10;;;;;;;9.27;5.37;;;;;;;0.39;81.98;101033.81;5028205;28;20655;-62
2021/01/14 07:29:41;;;;;;;7.33;5.80;;;;;;;0.41;82.43;101038.13;5028114;28;20663;-62
2021/01/14 07:32:07;;;;;;;18.57;10.60;;;;;;;0.41;82.40;101039.88;5028066;28;20577;-61
2021/01/14 07:34:36;;;;;;;11.77;7.17;;;;;;;0.41;82.16;101046.00;5028861;28;20222;-60
2021/01/14 07:37:03;;;;;;;11.67;7.40;;;;;;;0.42;82.67;101050.34;5020057;28;20237;-62
2021/01/14 07:39:46;;;;;;;12.80;7.50;;;;;;;0.43;82.72;101049.47;5027856;28;20210;-62
2021/01/14 07:42:21;;;;;;;9.83;7.60;;;;;;;0.43;82.79;101056.47;5021774;28;20545;-62
2021/01/14 07:44:49;;;;;;;10.37;6.80;;;;;;;0.45;82.60;101062.53;5022846;28;20223;-62
2021/01/14 07:47:23;;;;;;;12.50;7.17;;;;;;;0.44;82.94;101059.06;5023160;28;20214;-62
2021/01/14 07:49:49;;;;;;;12.33;6.80;;;;;;;0.44;83.09;101059.06;5030672;28;20214;-61
2021/01/14 07:52:28;;;;;;;9.23;6.43;;;;;;;0.45;82.95;101058.16;5027651;28;20214;-65
2021/01/14 07:54:58;;;;;;;14.17;6.90;;;;;;;0.46;82.94;101065.13;5031348;28;20233;-61
2021/01/14 07:57:28;;;;;;;8.23;6.40;;;;;;;0.45;83.00;101070.41;5027803;28;20230;-62
2021/01/14 07:59:57;;;;;;;9.57;6.47;;;;;;;0.44;83.06;101064.28;5027199;28;20198;-62
2021/01/14 08:02:23;;;;;;;8.90;7.33;;;;;;;0.44;83.17;101071.28;5019605;28;20203;-63
2021/01/14 08:04:50;;;;;;;9.83;7.23;;;;;;;0.44;83.26;101073.91;5020205;28;20238;-62
2021/01/14 08:07:26;;;;;;;13.77;8.37;;;;;;;0.44;83.54;101087.88;5020411;28;20214;-70
2021/01/14 08:09:53;;;;;;;10.73;7.50;;;;;;;0.44;83.47;101090.50;5023276;28;20296;-70
2021/01/14 08:12:20;;;;;;;12.17;7.53;;;;;;;0.44;83.49;101093.13;5022655;28;20581;-70
2021/01/14 08:14:47;;;;;;;11.97;8.03;;;;;;;0.45;83.55;101093.97;5023555;28;20225;-70
2021/01/14 08:17:21;;;;;;;12.00;8.10;;;;;;;0.46;83.77;101091.34;5024660;28;20245;-69
2021/01/14 08:19:48;;;;;;;15.33;7.80;;;;;;;0.47;83.69;101103.56;5023821;28;20202;-70
2021/01/14 08:22:14;;;;;;;12.67;8.23;;;;;;;0.47;83.85;101100.06;5020716;28;20202;-69
2021/01/14 08:24:49;;;;;;;10.80;8.03;;;;;;;0.49;83.92;101107.03;5022100;28;20222;-70
2021/01/14 08:27:22;;;;;;;11.60;8.23;;;;;;;0.49;83.92;101117.50;5022299;28;20208;-69
2021/01/14 08:29:56;;;;;;;12.03;8.40;;;;;;;0.51;83.91;101117.50;5032545;28;20213;-69
2021/01/14 08:32:30;;;;;;;12.73;9.43;;;;;;;0.51;83.92;101120.97;5030407;28;20293;-68
2021/01/14 08:34:57;;;;;;;12.87;8.93;;;;;;;0.53;84.20;101121.81;5032322;28;20288;-70
2021/01/14 08:37:33;;;;;;;13.90;8.47;;;;;;;0.54;84.11;101122.66;5029420;28;20238;-70
2021/01/14 08:40:01;;;;;;;11.47;8.40;;;;;;;0.55;83.94;101124.41;5022993;28;20212;-70
2021/01/14 08:42:35;;;;;;;13.00;9.10;;;;;;;0.55;84.15;101122.63;5029560;28;20202;-69
2021/01/14 08:45:11;;;;;;;15.33;9.10;;;;;;;0.57;84.43;101136.59;5030279;28;20624;-70
2021/01/14 08:47:59;;;;;;;12.43;9.10;;;;;;;0.59;84.40;101136.56;5019646;28;20216;-69
2021/01/14 08:50:36;;;;;;;13.53;8.83;;;;;;;0.60;84.34;101147.03;5025729;28;20210;-69
2021/01/14 08:53:03;;;;;;;14.50;9.90;;;;;;;0.60;84.26;101152.28;5029647;28;20208;-69
2021/01/14 08:55:29;;;;;;;13.53;9.20;;;;;;;0.61;84.25;101155.75;5032287;28;20222;-70
2021/01/14 08:57:56;;;;;;;12.70;8.97;;;;;;;0.62;84.60;101160.13;5029154;28;20257;-69
2021/01/14 09:00:24;;;;;;;15.80;9.73;;;;;;;0.63;84.06;101154.00;5032501;28;20210;-69
2021/01/14 09:02:51;;;;;;;15.73;9.70;;;;;;;0.63;84.50;101160.09;5025773;28;20214;-69
2021/01/14 09:05:17;;;;;;;14.73;10.40;;;;;;;0.66;84.41;101162.69;5047625;22;20233;-69
2021/01/14 09:08:04;;;;;;;16.97;10.70;;;;;;;0.66;84.76;101159.19;5050730;28;20224;-68
2021/01/14 09:10:42;;;;;;;14.80;9.40;;;;;;;0.68;84.55;101160.03;5047612;28;20296;-69
2021/01/14 09:13:09;;;;;;;12.20;9.30;;;;;;;0.69;84.69;101177.50;5050824;28;20231;-69
2021/01/14 09:15:36;;;;;;;13.10;9.30;;;;;;;0.71;84.38;101165.25;5052661;28;20236;-69
2021/01/14 09:18:02;;;;;;;14.57;9.67;;;;;;;0.72;84.87;101172.19;5022215;28;20238;-68
2021/01/14 09:20:29;;;;;;;15.20;9.57;;;;;;;0.75;85.38;101174.78;5022562;28;20213;-69
2021/01/14 09:22:58;;;;;;;15.40;10.77;;;;;;;0.76;85.01;101183.50;5025818;28;20206;-70
2021/01/14 09:25:33;;;;;;;13.57;9.90;;;;;;;0.78;84.82;101187.84;5032063;28;20257;-69
2021/01/14 09:28:00;;;;;;;16.67;10.40;;;;;;;0.80;84.69;101193.06;5021305;28;20203;-75
2021/01/14 09:30:26;;;;;;;16.27;9.70;;;;;;;0.82;84.87;101191.28;5032589;28;20207;-70
2021/01/14 09:32:58;;;;;;;14.63;9.70;;;;;;;0.83;85.04;101196.50;5024800;28;20210;-70
2021/01/14 09:35:25;;;;;;;11.80;9.43;;;;;;;0.84;85.08;101192.13;5024443;28;20233;-69
2021/01/14 09:37:52;;;;;;;16.90;10.00;;;;;;;0.87;85.10;101198.22;5018527;28;20226;-69
2021/01/14 09:40:19;;;;;;;17.10;11.20;;;;;;;0.90;84.99;101207.75;5023024;28;20724;-69
2021/01/14 09:42:46;;;;;;;14.63;9.80;;;;;;;0.92;85.03;101208.59;5021978;28;20661;-68
2021/01/14 09:45:14;;;;;;;15.30;10.33;;;;;;;0.94;85.28;101212.94;5023330;28;20229;-69
2021/01/14 09:47:40;;;;;;;14.13;9.93;;;;;;;0.96;84.95;101218.16;5017509;28;20214;-70
2021/01/14 09:50:08;;;;;;;12.57;8.77;;;;;;;0.97;85.19;101225.16;5020260;28;20206;-70
2021/01/14 09:52:34;;;;;;;14.57;10.20;;;;;;;0.98;85.15;101224.25;5023526;28;20218;-69
2021/01/14 09:55:01;;;;;;;13.27;9.30;;;;;;;0.98;85.05;101225.13;5017080;28;20681;-70
2021/01/14 09:57:28;;;;;;;15.33;10.37;;;;;;;1.01;84.91;101230.34;5028982;28;20234;-71
2021/01/14 09:59:57;;;;;;;15.23;9.80;;;;;;;1.03;85.10;101230.31;5028775;28;20213;-70
2021/01/14 10:02:30;;;;;;;18.00;10.23;;;;;;;1.06;85.22;101238.16;5023209;28;20581;-68
2021/01/14 10:04:59;;;;;;;16.37;9.83;;;;;;;1.08;85.39;101249.44;5020712;28;21180;-68
2021/01/14 10:07:27;;;;;;;11.80;8.63;;;;;;;1.08;85.36;101244.19;5018900;28;20199;-68
2021/01/14 10:09:54;;;;;;;13.47;8.73;;;;;;;1.10;85.35;101246.81;5010718;28;20553;-68
2021/01/14 10:12:20;;;;;;;12.83;9.00;;;;;;;1.10;85.52;101250.28;5014420;28;20647;-68
2021/01/14 10:14:46;;;;;;;13.63;9.40;;;;;;;1.11;85.09;101254.66;5015894;28;20198;-68
2021/01/14 10:17:14;;;;;;;13.97;9.13;;;;;;;1.11;85.22;101256.41;5019175;28;20222;-69
2021/01/14 10:19:43;;;;;;;15.43;9.90;;;;;;;1.10;85.51;101258.16;5017738;28;20340;-69
2021/01/14 10:22:09;;;;;;;13.50;9.63;;;;;;;1.10;85.59;101255.53;5017760;28;20238;-71
2021/01/14 10:24:36;;;;;;;12.83;9.60;;;;;;;1.12;85.45;101263.41;5015253;28;20209;-69
2021/01/14 10:27:13;;;;;;;13.53;9.20;;;;;;;1.13;85.46;101255.50;5016550;28;20213;-69
2021/01/14 10:29:40;;;;;;;14.50;9.23;;;;;;;1.13;85.03;101260.75;5013334;28;20577;-68
2021/01/14 10:32:08;;;;;;;16.37;10.03;;;;;;;1.15;84.87;101261.59;5014081;28;20209;-69
2021/01/14 10:34:45;;;;;;;12.87;9.33;;;;;;;1.16;84.88;101262.47;5016830;28;20260;-70
2021/01/14 10:37:23;;;;;;;14.27;9.50;;;;;;;1.16;85.27;101259.84;5022464;28;20566;-69
2021/01/14 10:39:50;;;;;;;12.87;8.90;;;;;;;1.15;85.15;101263.34;5024318;28;20207;-69
2021/01/14 10:42:31;;;;;;;10.97;9.20;;;;;;;1.15;85.01;101256.34;5013399;28;20605;-72
2021/01/14 10:44:59;;;;;;;15.80;10.33;;;;;;;1.16;85.31;101254.59;5012028;28;20664;-68
2021/01/14 10:47:25;;;;;;;14.43;10.27;;;;;;;1.17;85.20;101267.69;5014627;28;20206;-69
2021/01/14 10:49:52;;;;;;;13.37;9.97;;;;;;;1.18;85.30;101253.69;5019683;28;20213;-67
2021/01/14 10:52:18;;;;;;;14.37;10.30;;;;;;;1.19;85.20;101265.06;5017126;28;20202;-67
2021/01/14 10:54:58;;;;;;;12.83;10.30;;;;;;;1.20;84.86;101256.28;5014843;28;20206;-68
2021/01/14 10:57:44;;;;;;;19.20;14.47;;;;;;;1.21;85.42;101261.50;5020558;28;20234;-68
2021/01/14 11:00:18;;;;;;;16.70;13.17;;;;;;;1.21;84.97;101258.91;5020897;28;20206;-68
2021/01/14 11:02:45;;;;;;;19.13;14.60;;;;;;;1.22;85.11;101265.00;5023912;28;20281;-68
2021/01/14 11:05:12;;;;;;;12.53;9.73;;;;;;;1.21;84.98;101266.75;5023756;28;20266;-69
2021/01/14 11:07:38;;;;;;;15.80;10.77;;;;;;;1.21;85.07;101261.50;5019473;28;20206;-69
2021/01/14 11:10:07;;;;;;;13.67;10.77;;;;;;;1.22;85.25;101259.75;5017236;28;20210;-68
2021/01/14 11:12:34;;;;;;;15.33;10.70;;;;;;;1.24;85.20;101268.47;5020055;28;20639;-68
2021/01/14 11:15:00;;;;;;;17.27;9.90;;;;;;;1.25;85.28;101259.72;5023776;28;20230;-70
2021/01/14 11:17:27;;;;;;;13.93;9.13;;;;;;;1.25;85.25;101259.72;5014420;28;20318;-69
2021/01/14 11:19:53;;;;;;;13.63;9.70;;;;;;;1.26;84.77;101258.78;5021226;28;20233;-69
2021/01/14 11:22:19;;;;;;;14.37;9.03;;;;;;;1.26;85.19;101264.03;5020346;28;20293;-69
2021/01/14 11:24:44;;;;;;;14.43;8.80;;;;;;;1.26;85.21;101267.53;5032437;28;20251;-69
2021/01/14 11:27:11;;;;;;;14.53;9.60;;;;;;;1.28;85.27;101260.50;5031452;28;20691;-69
2021/01/14 11:29:37;;;;;;;19.50;9.93;;;;;;;1.28;84.86;101271.00;5031985;28;20206;-70
2021/01/14 11:32:04;;;;;;;14.97;9.20;;;;;;;1.30;85.20;101274.47;5029067;28;20306;-69
2021/01/14 11:34:30;;;;;;;14.90;9.57;;;;;;;1.32;85.09;101271.84;5033336;28;20305;-69
2021/01/14 11:36:56;;;;;;;16.23;9.77;;;;;;;1.33;85.00;101277.06;5022524;28;20660;-69
2021/01/14 11:39:22;;;;;;;21.33;11.20;;;;;;;1.34;84.71;101265.69;5025828;28;20226;-68